sensor_id;sensor_type;location;lat;lon;timestamp;P1;durP1;ratioP1;P2;durP2;ratioP2
7179;SDS011;3631;42.152;24.756;2023-02-22T00:00:10;2.57;;;2.20;;
7179;SDS011;3631;42.152;24.756;2023-02-22T00:02:49;3.97;;;2.63;;
7179;SDS011;3631;42.152;24.756;2023-02-22T00:05:17;3.07;;;2.50;;
7179;SDS011;3631;42.152;24.756;2023-02-22T00:07:45;3.67;;;2.80;;
7179;SDS011;3631;42.152;24.756;2023-02-22T00:10:13;2.90;;;2.70;;
7179;SDS011;3631;42.152;24.756;2023-02-22T00:12:45;4.67;;;2.80;;
7179;SDS011;3631;42.152;24.756;2023-02-22T00:15:13;3.43;;;3.13;;
7179;SDS011;3631;42.152;24.756;2023-02-22T00:17:41;3.00;;;2.80;;
7179;SDS011;3631;42.152;24.756;2023-02-22T00:20:10;2.67;;;2.43;;
7179;SDS011;3631;42.152;24.756;2023-02-22T00:22:39;3.10;;;2.80;;
7179;SDS011;3631;42.152;24.756;2023-02-22T00:25:07;2.90;;;2.70;;
7179;SDS011;3631;42.152;24.756;2023-02-22T00:27:35;3.83;;;2.50;;
7179;SDS011;3631;42.152;24.756;2023-02-22T00:30:02;3.60;;;2.30;;
7179;SDS011;3631;42.152;24.756;2023-02-22T00:32:29;3.47;;;3.00;;
7179;SDS011;3631;42.152;24.756;2023-02-22T00:34:56;3.50;;;3.13;;
7179;SDS011;3631;42.152;24.756;2023-02-22T00:37:25;3.50;;;2.70;;
7179;SDS011;3631;42.152;24.756;2023-02-22T00:39:55;2.93;;;2.60;;
7179;SDS011;3631;42.152;24.756;2023-02-22T00:42:22;3.33;;;2.73;;
7179;SDS011;3631;42.152;24.756;2023-02-22T00:44:49;3.30;;;3.00;;
7179;SDS011;3631;42.152;24.756;2023-02-22T00:47:16;3.03;;;2.73;;
7179;SDS011;3631;42.152;24.756;2023-02-22T00:49:43;2.93;;;2.73;;
7179;SDS011;3631;42.152;24.756;2023-02-22T00:52:10;3.13;;;2.67;;
7179;SDS011;3631;42.152;24.756;2023-02-22T00:54:38;3.27;;;2.73;;
7179;SDS011;3631;42.152;24.756;2023-02-22T00:57:05;2.77;;;2.57;;
7179;SDS011;3631;42.152;24.756;2023-02-22T00:59:32;2.87;;;2.67;;
7179;SDS011;3631;42.152;24.756;2023-02-22T01:01:59;3.07;;;2.67;;
7179;SDS011;3631;42.152;24.756;2023-02-22T01:04:26;3.20;;;2.50;;
7179;SDS011;3631;42.152;24.756;2023-02-22T01:06:52;3.70;;;2.70;;
7179;SDS011;3631;42.152;24.756;2023-02-22T01:09:20;13.70;;;3.00;;
7179;SDS011;3631;42.152;24.756;2023-02-22T01:11:49;3.80;;;2.63;;
7179;SDS011;3631;42.152;24.756;2023-02-22T01:14:19;3.20;;;2.90;;
7179;SDS011;3631;42.152;24.756;2023-02-22T01:16:48;3.43;;;2.97;;
7179;SDS011;3631;42.152;24.756;2023-02-22T01:19:15;2.97;;;2.60;;
7179;SDS011;3631;42.152;24.756;2023-02-22T01:21:42;2.97;;;2.43;;
7179;SDS011;3631;42.152;24.756;2023-02-22T01:24:11;2.77;;;2.53;;
7179;SDS011;3631;42.152;24.756;2023-02-22T01:26:40;2.97;;;2.77;;
7179;SDS011;3631;42.152;24.756;2023-02-22T01:29:08;3.30;;;3.00;;
7179;SDS011;3631;42.152;24.756;2023-02-22T01:31:39;3.00;;;2.80;;
7179;SDS011;3631;42.152;24.756;2023-02-22T01:34:08;2.60;;;2.40;;
7179;SDS011;3631;42.152;24.756;2023-02-22T01:36:35;3.23;;;3.03;;
7179;SDS011;3631;42.152;24.756;2023-02-22T01:39:04;3.17;;;2.87;;
7179;SDS011;3631;42.152;24.756;2023-02-22T01:41:31;3.20;;;2.90;;
7179;SDS011;3631;42.152;24.756;2023-02-22T01:46:45;5.20;;;3.20;;
7179;SDS011;3631;42.152;24.756;2023-02-22T01:49:12;7.23;;;3.20;;
7179;SDS011;3631;42.152;24.756;2023-02-22T01:51:41;5.53;;;2.90;;
7179;SDS011;3631;42.152;24.756;2023-02-22T01:54:10;3.50;;;3.20;;
7179;SDS011;3631;42.152;24.756;2023-02-22T01:56:44;3.13;;;2.93;;
7179;SDS011;3631;42.152;24.756;2023-02-22T01:59:15;3.10;;;2.90;;
7179;SDS011;3631;42.152;24.756;2023-02-22T02:01:44;5.20;;;3.20;;
7179;SDS011;3631;42.152;24.756;2023-02-22T02:04:12;3.83;;;2.90;;
7179;SDS011;3631;42.152;24.756;2023-02-22T02:06:43;5.27;;;2.87;;
7179;SDS011;3631;42.152;24.756;2023-02-22T02:09:12;3.07;;;2.87;;
7179;SDS011;3631;42.152;24.756;2023-02-22T02:11:44;3.30;;;3.00;;
7179;SDS011;3631;42.152;24.756;2023-02-22T02:14:12;3.87;;;2.90;;
7179;SDS011;3631;42.152;24.756;2023-02-22T02:16:40;2.87;;;2.60;;
7179;SDS011;3631;42.152;24.756;2023-02-22T02:19:13;3.83;;;3.07;;
7179;SDS011;3631;42.152;24.756;2023-02-22T02:21:49;2.77;;;2.57;;
7179;SDS011;3631;42.152;24.756;2023-02-22T02:24:43;3.00;;;2.80;;
7179;SDS011;3631;42.152;24.756;2023-02-22T02:27:38;2.70;;;2.50;;
7179;SDS011;3631;42.152;24.756;2023-02-22T02:30:29;4.63;;;2.73;;
7179;SDS011;3631;42.152;24.756;2023-02-22T02:33:10;4.80;;;2.80;;
7179;SDS011;3631;42.152;24.756;2023-02-22T02:35:50;4.63;;;3.03;;
7179;SDS011;3631;42.152;24.756;2023-02-22T02:38:29;3.53;;;2.83;;
7179;SDS011;3631;42.152;24.756;2023-02-22T02:41:02;4.40;;;2.80;;
7179;SDS011;3631;42.152;24.756;2023-02-22T02:43:36;3.63;;;2.80;;
7179;SDS011;3631;42.152;24.756;2023-02-22T02:46:09;3.30;;;3.00;;
7179;SDS011;3631;42.152;24.756;2023-02-22T02:48:43;4.13;;;2.90;;
7179;SDS011;3631;42.152;24.756;2023-02-22T02:51:18;3.33;;;2.83;;
7179;SDS011;3631;42.152;24.756;2023-02-22T02:53:48;3.37;;;2.73;;
7179;SDS011;3631;42.152;24.756;2023-02-22T02:56:17;3.30;;;2.83;;
7179;SDS011;3631;42.152;24.756;2023-02-22T02:58:46;6.80;;;3.00;;
7179;SDS011;3631;42.152;24.756;2023-02-22T03:01:16;4.60;;;3.50;;
7179;SDS011;3631;42.152;24.756;2023-02-22T03:04:12;3.70;;;3.40;;
7179;SDS011;3631;42.152;24.756;2023-02-22T03:07:02;4.57;;;4.00;;
7179;SDS011;3631;42.152;24.756;2023-02-22T03:09:47;5.03;;;3.80;;
7179;SDS011;3631;42.152;24.756;2023-02-22T03:12:25;6.97;;;4.37;;
7179;SDS011;3631;42.152;24.756;2023-02-22T03:15:06;4.93;;;3.77;;
7179;SDS011;3631;42.152;24.756;2023-02-22T03:17:42;7.83;;;4.20;;
7179;SDS011;3631;42.152;24.756;2023-02-22T03:20:17;4.90;;;3.90;;
7179;SDS011;3631;42.152;24.756;2023-02-22T03:22:56;5.20;;;3.90;;
7179;SDS011;3631;42.152;24.756;2023-02-22T03:25:29;4.30;;;4.00;;
7179;SDS011;3631;42.152;24.756;2023-02-22T03:28:00;4.97;;;4.07;;
7179;SDS011;3631;42.152;24.756;2023-02-22T03:30:32;4.00;;;3.70;;
7179;SDS011;3631;42.152;24.756;2023-02-22T03:33:09;6.20;;;3.70;;
7179;SDS011;3631;42.152;24.756;2023-02-22T03:35:41;6.13;;;4.83;;
7179;SDS011;3631;42.152;24.756;2023-02-22T03:38:15;9.87;;;4.73;;
7179;SDS011;3631;42.152;24.756;2023-02-22T03:40:45;4.97;;;4.40;;
7179;SDS011;3631;42.152;24.756;2023-02-22T03:43:17;5.60;;;4.00;;
7179;SDS011;3631;42.152;24.756;2023-02-22T03:45:49;5.33;;;3.87;;
7179;SDS011;3631;42.152;24.756;2023-02-22T03:48:18;5.60;;;4.13;;
7179;SDS011;3631;42.152;24.756;2023-02-22T03:50:52;4.17;;;3.77;;
7179;SDS011;3631;42.152;24.756;2023-02-22T03:53:19;4.60;;;3.60;;
7179;SDS011;3631;42.152;24.756;2023-02-22T03:55:48;6.90;;;3.70;;
7179;SDS011;3631;42.152;24.756;2023-02-22T03:58:17;4.27;;;3.87;;
7179;SDS011;3631;42.152;24.756;2023-02-22T04:00:47;4.87;;;4.03;;
7179;SDS011;3631;42.152;24.756;2023-02-22T04:03:17;4.17;;;3.77;;
7179;SDS011;3631;42.152;24.756;2023-02-22T04:05:44;5.43;;;4.10;;
7179;SDS011;3631;42.152;24.756;2023-02-22T04:08:12;6.37;;;3.47;;
7179;SDS011;3631;42.152;24.756;2023-02-22T04:10:39;4.80;;;3.43;;
7179;SDS011;3631;42.152;24.756;2023-02-22T04:13:07;4.07;;;3.77;;
7179;SDS011;3631;42.152;24.756;2023-02-22T04:15:34;4.93;;;4.00;;
7179;SDS011;3631;42.152;24.756;2023-02-22T04:18:01;4.77;;;3.57;;
7179;SDS011;3631;42.152;24.756;2023-02-22T04:20:28;3.90;;;3.50;;
7179;SDS011;3631;42.152;24.756;2023-02-22T04:22:55;3.37;;;3.07;;
7179;SDS011;3631;42.152;24.756;2023-02-22T04:25:24;4.77;;;3.37;;
7179;SDS011;3631;42.152;24.756;2023-02-22T04:27:51;7.67;;;3.83;;
7179;SDS011;3631;42.152;24.756;2023-02-22T04:30:19;4.40;;;3.40;;
7179;SDS011;3631;42.152;24.756;2023-02-22T04:32:46;6.10;;;3.50;;
7179;SDS011;3631;42.152;24.756;2023-02-22T04:35:13;4.10;;;3.70;;
7179;SDS011;3631;42.152;24.756;2023-02-22T04:37:40;5.50;;;4.07;;
7179;SDS011;3631;42.152;24.756;2023-02-22T04:40:07;7.03;;;3.83;;
7179;SDS011;3631;42.152;24.756;2023-02-22T04:42:37;5.90;;;3.77;;
7179;SDS011;3631;42.152;24.756;2023-02-22T04:45:05;8.07;;;4.50;;
7179;SDS011;3631;42.152;24.756;2023-02-22T04:47:33;7.33;;;4.20;;
7179;SDS011;3631;42.152;24.756;2023-02-22T04:50:01;6.10;;;4.30;;
7179;SDS011;3631;42.152;24.756;2023-02-22T04:52:28;6.73;;;3.73;;
7179;SDS011;3631;42.152;24.756;2023-02-22T04:54:54;11.30;;;4.40;;
7179;SDS011;3631;42.152;24.756;2023-02-22T04:57:21;6.20;;;3.93;;
7179;SDS011;3631;42.152;24.756;2023-02-22T04:59:50;5.07;;;4.00;;
7179;SDS011;3631;42.152;24.756;2023-02-22T05:02:17;4.93;;;3.97;;
7179;SDS011;3631;42.152;24.756;2023-02-22T05:04:44;5.07;;;3.93;;
7179;SDS011;3631;42.152;24.756;2023-02-22T05:07:11;8.43;;;4.80;;
7179;SDS011;3631;42.152;24.756;2023-02-22T05:09:38;9.10;;;5.00;;
7179;SDS011;3631;42.152;24.756;2023-02-22T05:12:05;8.30;;;5.20;;
7179;SDS011;3631;42.152;24.756;2023-02-22T05:14:32;4.60;;;3.53;;
7179;SDS011;3631;42.152;24.756;2023-02-22T05:17:01;4.13;;;3.10;;
7179;SDS011;3631;42.152;24.756;2023-02-22T05:19:28;4.87;;;3.00;;
7179;SDS011;3631;42.152;24.756;2023-02-22T05:21:55;5.97;;;3.50;;
7179;SDS011;3631;42.152;24.756;2023-02-22T05:24:22;5.07;;;3.13;;
7179;SDS011;3631;42.152;24.756;2023-02-22T05:26:49;14.00;;;2.70;;
7179;SDS011;3631;42.152;24.756;2023-02-22T05:29:17;10.47;;;3.77;;
7179;SDS011;3631;42.152;24.756;2023-02-22T05:31:44;5.30;;;3.40;;
7179;SDS011;3631;42.152;24.756;2023-02-22T05:34:12;5.70;;;2.47;;
7179;SDS011;3631;42.152;24.756;2023-02-22T05:36:40;9.57;;;3.13;;
7179;SDS011;3631;42.152;24.756;2023-02-22T05:39:07;4.90;;;2.53;;
7179;SDS011;3631;42.152;24.756;2023-02-22T05:41:33;4.70;;;2.70;;
7179;SDS011;3631;42.152;24.756;2023-02-22T05:44:00;6.07;;;2.67;;
7179;SDS011;3631;42.152;24.756;2023-02-22T05:46:28;7.60;;;2.90;;
7179;SDS011;3631;42.152;24.756;2023-02-22T05:48:55;6.43;;;2.90;;
7179;SDS011;3631;42.152;24.756;2023-02-22T05:51:23;5.60;;;3.07;;
7179;SDS011;3631;42.152;24.756;2023-02-22T05:53:50;3.63;;;2.70;;
7179;SDS011;3631;42.152;24.756;2023-02-22T05:56:21;5.37;;;2.57;;
7179;SDS011;3631;42.152;24.756;2023-02-22T05:58:49;2.83;;;2.43;;
7179;SDS011;3631;42.152;24.756;2023-02-22T06:01:16;3.57;;;2.37;;
7179;SDS011;3631;42.152;24.756;2023-02-22T06:03:45;3.87;;;2.17;;
7179;SDS011;3631;42.152;24.756;2023-02-22T06:06:13;4.50;;;2.00;;
7179;SDS011;3631;42.152;24.756;2023-02-22T06:08:41;5.23;;;2.80;;
7179;SDS011;3631;42.152;24.756;2023-02-22T06:11:08;7.87;;;2.30;;
7179;SDS011;3631;42.152;24.756;2023-02-22T06:13:35;3.30;;;2.27;;
7179;SDS011;3631;42.152;24.756;2023-02-22T06:16:02;7.13;;;3.17;;
7179;SDS011;3631;42.152;24.756;2023-02-22T06:18:30;2.80;;;2.60;;
7179;SDS011;3631;42.152;24.756;2023-02-22T06:20:57;6.00;;;2.97;;
7179;SDS011;3631;42.152;24.756;2023-02-22T06:23:25;5.90;;;2.93;;
7179;SDS011;3631;42.152;24.756;2023-02-22T06:25:54;5.40;;;3.03;;
7179;SDS011;3631;42.152;24.756;2023-02-22T06:28:21;3.93;;;2.93;;
7179;SDS011;3631;42.152;24.756;2023-02-22T06:30:47;6.63;;;3.23;;
7179;SDS011;3631;42.152;24.756;2023-02-22T06:33:14;8.77;;;3.33;;
7179;SDS011;3631;42.152;24.756;2023-02-22T06:35:41;5.10;;;3.07;;
7179;SDS011;3631;42.152;24.756;2023-02-22T06:38:09;5.63;;;3.30;;
7179;SDS011;3631;42.152;24.756;2023-02-22T06:40:36;4.00;;;2.33;;
7179;SDS011;3631;42.152;24.756;2023-02-22T06:43:04;7.23;;;2.53;;
7179;SDS011;3631;42.152;24.756;2023-02-22T06:45:31;3.43;;;2.63;;
7179;SDS011;3631;42.152;24.756;2023-02-22T06:47:58;4.73;;;2.73;;
7179;SDS011;3631;42.152;24.756;2023-02-22T06:50:27;4.53;;;2.70;;
7179;SDS011;3631;42.152;24.756;2023-02-22T06:52:54;3.90;;;2.23;;
7179;SDS011;3631;42.152;24.756;2023-02-22T06:55:22;7.40;;;2.43;;
7179;SDS011;3631;42.152;24.756;2023-02-22T06:57:51;4.30;;;2.83;;
7179;SDS011;3631;42.152;24.756;2023-02-22T07:00:21;5.03;;;2.80;;
7179;SDS011;3631;42.152;24.756;2023-02-22T07:02:49;5.50;;;2.95;;
7179;SDS011;3631;42.152;24.756;2023-02-22T07:05:18;4.75;;;3.40;;
7179;SDS011;3631;42.152;24.756;2023-02-22T07:07:46;8.45;;;4.80;;
7179;SDS011;3631;42.152;24.756;2023-02-22T07:10:16;8.23;;;4.47;;
7179;SDS011;3631;42.152;24.756;2023-02-22T07:12:44;7.15;;;2.72;;
7179;SDS011;3631;42.152;24.756;2023-02-22T07:15:13;5.82;;;2.90;;
7179;SDS011;3631;42.152;24.756;2023-02-22T07:17:43;4.25;;;2.97;;
7179;SDS011;3631;42.152;24.756;2023-02-22T07:20:10;6.20;;;3.00;;
7179;SDS011;3631;42.152;24.756;2023-02-22T07:22:37;8.55;;;4.30;;
7179;SDS011;3631;42.152;24.756;2023-02-22T07:25:05;9.93;;;2.70;;
7179;SDS011;3631;42.152;24.756;2023-02-22T07:27:34;3.28;;;2.83;;
7179;SDS011;3631;42.152;24.756;2023-02-22T07:30:02;3.97;;;2.40;;
7179;SDS011;3631;42.152;24.756;2023-02-22T07:32:29;9.68;;;4.25;;
7179;SDS011;3631;42.152;24.756;2023-02-22T07:34:57;18.42;;;6.43;;
7179;SDS011;3631;42.152;24.756;2023-02-22T07:37:27;10.63;;;4.35;;
7179;SDS011;3631;42.152;24.756;2023-02-22T07:39:53;3.83;;;3.20;;
7179;SDS011;3631;42.152;24.756;2023-02-22T07:42:20;7.50;;;5.50;;
7179;SDS011;3631;42.152;24.756;2023-02-22T07:44:47;10.68;;;4.63;;
7179;SDS011;3631;42.152;24.756;2023-02-22T07:47:14;17.27;;;6.30;;
7179;SDS011;3631;42.152;24.756;2023-02-22T07:49:41;5.43;;;3.13;;
7179;SDS011;3631;42.152;24.756;2023-02-22T07:52:09;8.48;;;4.03;;
7179;SDS011;3631;42.152;24.756;2023-02-22T07:54:36;5.53;;;2.75;;
7179;SDS011;3631;42.152;24.756;2023-02-22T07:57:03;4.93;;;2.10;;
7179;SDS011;3631;42.152;24.756;2023-02-22T07:59:30;3.03;;;2.50;;
7179;SDS011;3631;42.152;24.756;2023-02-22T08:01:58;4.57;;;3.20;;
7179;SDS011;3631;42.152;24.756;2023-02-22T08:04:25;18.92;;;10.32;;
7179;SDS011;3631;42.152;24.756;2023-02-22T08:06:52;5.35;;;4.55;;
7179;SDS011;3631;42.152;24.756;2023-02-22T08:09:20;6.25;;;3.95;;
7179;SDS011;3631;42.152;24.756;2023-02-22T08:11:47;17.23;;;9.32;;
7179;SDS011;3631;42.152;24.756;2023-02-22T08:14:14;14.23;;;9.18;;
7179;SDS011;3631;42.152;24.756;2023-02-22T08:16:41;9.98;;;5.75;;
7179;SDS011;3631;42.152;24.756;2023-02-22T08:19:08;16.38;;;7.57;;
7179;SDS011;3631;42.152;24.756;2023-02-22T08:21:35;4.28;;;3.90;;
7179;SDS011;3631;42.152;24.756;2023-02-22T08:24:03;4.10;;;3.15;;
7179;SDS011;3631;42.152;24.756;2023-02-22T08:26:32;5.40;;;3.60;;
7179;SDS011;3631;42.152;24.756;2023-02-22T08:28:59;10.77;;;4.85;;
7179;SDS011;3631;42.152;24.756;2023-02-22T08:31:26;4.60;;;4.10;;
7179;SDS011;3631;42.152;24.756;2023-02-22T08:33:53;5.53;;;4.85;;
7179;SDS011;3631;42.152;24.756;2023-02-22T08:36:20;5.95;;;4.32;;
7179;SDS011;3631;42.152;24.756;2023-02-22T08:38:47;3.83;;;3.58;;
7179;SDS011;3631;42.152;24.756;2023-02-22T08:41:14;8.75;;;3.58;;
7179;SDS011;3631;42.152;24.756;2023-02-22T08:43:42;6.63;;;3.03;;
7179;SDS011;3631;42.152;24.756;2023-02-22T08:46:09;7.57;;;2.72;;
7179;SDS011;3631;42.152;24.756;2023-02-22T08:48:36;2.85;;;2.22;;
7179;SDS011;3631;42.152;24.756;2023-02-22T08:51:03;8.95;;;2.70;;
7179;SDS011;3631;42.152;24.756;2023-02-22T08:53:30;14.35;;;4.28;;
7179;SDS011;3631;42.152;24.756;2023-02-22T08:55:57;3.75;;;3.28;;
7179;SDS011;3631;42.152;24.756;2023-02-22T08:58:24;8.05;;;2.90;;
7179;SDS011;3631;42.152;24.756;2023-02-22T09:00:52;6.47;;;3.42;;
7179;SDS011;3631;42.152;24.756;2023-02-22T09:03:19;25.50;;;3.60;;
7179;SDS011;3631;42.152;24.756;2023-02-22T09:05:46;7.43;;;4.00;;
7179;SDS011;3631;42.152;24.756;2023-02-22T09:08:14;15.07;;;3.63;;
7179;SDS011;3631;42.152;24.756;2023-02-22T09:10:41;8.43;;;3.95;;
7179;SDS011;3631;42.152;24.756;2023-02-22T09:13:09;13.05;;;3.92;;
7179;SDS011;3631;42.152;24.756;2023-02-22T09:15:36;5.60;;;2.70;;
7179;SDS011;3631;42.152;24.756;2023-02-22T09:18:05;7.55;;;2.83;;
7179;SDS011;3631;42.152;24.756;2023-02-22T09:20:34;7.90;;;3.63;;
7179;SDS011;3631;42.152;24.756;2023-02-22T09:23:02;2.58;;;2.38;;
7179;SDS011;3631;42.152;24.756;2023-02-22T09:25:29;5.53;;;2.55;;
7179;SDS011;3631;42.152;24.756;2023-02-22T09:27:58;7.60;;;2.70;;
7179;SDS011;3631;42.152;24.756;2023-02-22T09:30:26;3.15;;;2.50;;
7179;SDS011;3631;42.152;24.756;2023-02-22T09:32:57;7.45;;;3.20;;
7179;SDS011;3631;42.152;24.756;2023-02-22T09:35:26;3.13;;;2.38;;
7179;SDS011;3631;42.152;24.756;2023-02-22T09:37:54;2.83;;;2.05;;
7179;SDS011;3631;42.152;24.756;2023-02-22T09:40:21;2.78;;;2.17;;
7179;SDS011;3631;42.152;24.756;2023-02-22T09:43:06;6.72;;;2.35;;
7179;SDS011;3631;42.152;24.756;2023-02-22T09:45:43;8.48;;;2.13;;
7179;SDS011;3631;42.152;24.756;2023-02-22T09:48:24;4.95;;;1.83;;
7179;SDS011;3631;42.152;24.756;2023-02-22T09:50:53;9.20;;;2.13;;
7179;SDS011;3631;42.152;24.756;2023-02-22T09:53:26;3.15;;;2.25;;
7179;SDS011;3631;42.152;24.756;2023-02-22T09:56:00;2.55;;;2.35;;
7179;SDS011;3631;42.152;24.756;2023-02-22T09:58:35;3.05;;;2.33;;
7179;SDS011;3631;42.152;24.756;2023-02-22T10:01:11;2.92;;;1.80;;
7179;SDS011;3631;42.152;24.756;2023-02-22T10:03:49;1.98;;;1.88;;
7179;SDS011;3631;42.152;24.756;2023-02-22T10:06:23;2.55;;;1.55;;
7179;SDS011;3631;42.152;24.756;2023-02-22T10:08:51;1.98;;;1.65;;
7179;SDS011;3631;42.152;24.756;2023-02-22T10:11:27;2.50;;;1.50;;
7179;SDS011;3631;42.152;24.756;2023-02-22T10:14:19;3.25;;;2.05;;
7179;SDS011;3631;42.152;24.756;2023-02-22T10:16:59;2.33;;;2.10;;
7179;SDS011;3631;42.152;24.756;2023-02-22T10:19:36;5.85;;;2.80;;
7179;SDS011;3631;42.152;24.756;2023-02-22T10:22:19;4.32;;;2.65;;
7179;SDS011;3631;42.152;24.756;2023-02-22T10:24:58;2.70;;;2.05;;
7179;SDS011;3631;42.152;24.756;2023-02-22T10:27:31;2.28;;;1.83;;
7179;SDS011;3631;42.152;24.756;2023-02-22T10:30:01;4.82;;;2.22;;
7179;SDS011;3631;42.152;24.756;2023-02-22T10:32:35;4.55;;;2.28;;
7179;SDS011;3631;42.152;24.756;2023-02-22T10:35:15;6.13;;;2.45;;
7179;SDS011;3631;42.152;24.756;2023-02-22T10:37:47;2.35;;;2.15;;
7179;SDS011;3631;42.152;24.756;2023-02-22T10:40:18;6.05;;;2.38;;
7179;SDS011;3631;42.152;24.756;2023-02-22T10:42:56;2.58;;;1.95;;
7179;SDS011;3631;42.152;24.756;2023-02-22T10:45:26;3.05;;;2.25;;
7179;SDS011;3631;42.152;24.756;2023-02-22T10:47:56;2.03;;;1.92;;
7179;SDS011;3631;42.152;24.756;2023-02-22T10:50:27;2.90;;;2.25;;
7179;SDS011;3631;42.152;24.756;2023-02-22T10:52:57;9.13;;;2.35;;
7179;SDS011;3631;42.152;24.756;2023-02-22T10:55:24;9.57;;;3.38;;
7179;SDS011;3631;42.152;24.756;2023-02-22T10:57:58;6.22;;;2.35;;
7179;SDS011;3631;42.152;24.756;2023-02-22T11:00:29;2.08;;;1.98;;
7179;SDS011;3631;42.152;24.756;2023-02-22T11:03:02;5.38;;;2.50;;
7179;SDS011;3631;42.152;24.756;2023-02-22T11:05:32;2.58;;;2.20;;
7179;SDS011;3631;42.152;24.756;2023-02-22T11:10:55;3.50;;;2.50;;
7179;SDS011;3631;42.152;24.756;2023-02-22T11:13:26;10.27;;;2.20;;
7179;SDS011;3631;42.152;24.756;2023-02-22T11:15:57;30.25;;;3.92;;
7179;SDS011;3631;42.152;24.756;2023-02-22T11:18:28;27.27;;;4.03;;
7179;SDS011;3631;42.152;24.756;2023-02-22T11:20:59;13.63;;;3.33;;
7179;SDS011;3631;42.152;24.756;2023-02-22T11:23:29;14.90;;;3.80;;
7179;SDS011;3631;42.152;24.756;2023-02-22T11:26:01;6.18;;;3.30;;
7179;SDS011;3631;42.152;24.756;2023-02-22T11:28:32;6.60;;;2.70;;
7179;SDS011;3631;42.152;24.756;2023-02-22T11:31:12;5.03;;;2.78;;
7179;SDS011;3631;42.152;24.756;2023-02-22T11:33:45;6.18;;;2.63;;
7179;SDS011;3631;42.152;24.756;2023-02-22T11:36:27;15.90;;;2.05;;
7179;SDS011;3631;42.152;24.756;2023-02-22T11:38:58;2.60;;;1.92;;
7179;SDS011;3631;42.152;24.756;2023-02-22T11:41:30;3.13;;;1.85;;
7179;SDS011;3631;42.152;24.756;2023-02-22T11:44:10;2.00;;;1.90;;
7179;SDS011;3631;42.152;24.756;2023-02-22T11:46:40;2.55;;;1.50;;
7179;SDS011;3631;42.152;24.756;2023-02-22T11:49:09;3.42;;;1.90;;
7179;SDS011;3631;42.152;24.756;2023-02-22T11:51:42;1.60;;;1.50;;
7179;SDS011;3631;42.152;24.756;2023-02-22T11:57:25;1.63;;;1.52;;
7179;SDS011;3631;42.152;24.756;2023-02-22T12:00:14;5.38;;;1.88;;
7179;SDS011;3631;42.152;24.756;2023-02-22T12:02:57;1.73;;;1.60;;
7179;SDS011;3631;42.152;24.756;2023-02-22T12:05:42;1.98;;;1.88;;
7179;SDS011;3631;42.152;24.756;2023-02-22T12:08:24;1.67;;;1.58;;
7179;SDS011;3631;42.152;24.756;2023-02-22T12:11:01;3.58;;;1.48;;
7179;SDS011;3631;42.152;24.756;2023-02-22T12:13:41;1.75;;;1.60;;
7179;SDS011;3631;42.152;24.756;2023-02-22T12:16:22;5.97;;;1.63;;
7179;SDS011;3631;42.152;24.756;2023-02-22T12:19:01;3.13;;;1.63;;
7179;SDS011;3631;42.152;24.756;2023-02-22T12:21:37;2.50;;;1.90;;
7179;SDS011;3631;42.152;24.756;2023-02-22T12:24:11;1.52;;;1.42;;
7179;SDS011;3631;42.152;24.756;2023-02-22T12:26:44;9.48;;;1.67;;
7179;SDS011;3631;42.152;24.756;2023-02-22T12:29:26;9.02;;;1.83;;
7179;SDS011;3631;42.152;24.756;2023-02-22T12:31:58;2.53;;;1.80;;
7179;SDS011;3631;42.152;24.756;2023-02-22T12:34:29;12.23;;;2.10;;
7179;SDS011;3631;42.152;24.756;2023-02-22T12:37:02;4.10;;;1.55;;
7179;SDS011;3631;42.152;24.756;2023-02-22T12:39:39;2.55;;;1.67;;
7179;SDS011;3631;42.152;24.756;2023-02-22T12:42:17;3.63;;;1.92;;
7179;SDS011;3631;42.152;24.756;2023-02-22T12:44:51;2.35;;;1.98;;
7179;SDS011;3631;42.152;24.756;2023-02-22T12:47:22;2.15;;;1.92;;
7179;SDS011;3631;42.152;24.756;2023-02-22T12:49:56;1.90;;;1.80;;
7179;SDS011;3631;42.152;24.756;2023-02-22T12:52:32;4.57;;;2.30;;
7179;SDS011;3631;42.152;24.756;2023-02-22T12:55:09;4.45;;;1.70;;
7179;SDS011;3631;42.152;24.756;2023-02-22T12:57:43;4.15;;;2.20;;
7179;SDS011;3631;42.152;24.756;2023-02-22T13:00:16;1.80;;;1.63;;
7179;SDS011;3631;42.152;24.756;2023-02-22T13:02:53;4.05;;;1.83;;
7179;SDS011;3631;42.152;24.756;2023-02-22T13:05:26;2.13;;;1.67;;
7179;SDS011;3631;42.152;24.756;2023-02-22T13:08:12;11.40;;;1.73;;
7179;SDS011;3631;42.152;24.756;2023-02-22T13:10:56;73.63;;;5.50;;
7179;SDS011;3631;42.152;24.756;2023-02-22T13:13:34;11.30;;;2.25;;
7179;SDS011;3631;42.152;24.756;2023-02-22T13:16:07;21.08;;;4.13;;
7179;SDS011;3631;42.152;24.756;2023-02-22T13:18:48;4.90;;;1.85;;
7179;SDS011;3631;42.152;24.756;2023-02-22T13:21:24;6.65;;;2.10;;
7179;SDS011;3631;42.152;24.756;2023-02-22T13:23:57;9.80;;;2.28;;
7179;SDS011;3631;42.152;24.756;2023-02-22T13:26:30;7.40;;;2.53;;
7179;SDS011;3631;42.152;24.756;2023-02-22T13:29:06;7.75;;;1.85;;
7179;SDS011;3631;42.152;24.756;2023-02-22T13:34:35;1.98;;;1.75;;
7179;SDS011;3631;42.152;24.756;2023-02-22T13:37:18;3.30;;;2.13;;
7179;SDS011;3631;42.152;24.756;2023-02-22T13:39:59;2.30;;;1.85;;
7179;SDS011;3631;42.152;24.756;2023-02-22T13:42:58;7.13;;;2.45;;
7179;SDS011;3631;42.152;24.756;2023-02-22T13:48:35;17.83;;;2.83;;
7179;SDS011;3631;42.152;24.756;2023-02-22T13:51:30;39.88;;;14.50;;
7179;SDS011;3631;42.152;24.756;2023-02-22T13:54:06;11.98;;;5.93;;
7179;SDS011;3631;42.152;24.756;2023-02-22T13:56:40;12.48;;;5.47;;
7179;SDS011;3631;42.152;24.756;2023-02-22T13:59:19;6.53;;;3.45;;
7179;SDS011;3631;42.152;24.756;2023-02-22T14:01:50;4.85;;;2.10;;
7179;SDS011;3631;42.152;24.756;2023-02-22T14:04:20;5.20;;;3.42;;
7179;SDS011;3631;42.152;24.756;2023-02-22T14:07:03;9.88;;;5.05;;
7179;SDS011;3631;42.152;24.756;2023-02-22T14:09:57;20.27;;;9.00;;
7179;SDS011;3631;42.152;24.756;2023-02-22T14:12:46;8.82;;;6.28;;
7179;SDS011;3631;42.152;24.756;2023-02-22T14:15:15;7.68;;;2.60;;
7179;SDS011;3631;42.152;24.756;2023-02-22T14:17:47;5.82;;;4.65;;
7179;SDS011;3631;42.152;24.756;2023-02-22T14:20:25;10.43;;;9.35;;
7179;SDS011;3631;42.152;24.756;2023-02-22T14:25:55;11.18;;;6.75;;
7179;SDS011;3631;42.152;24.756;2023-02-22T14:28:36;8.15;;;4.38;;
7179;SDS011;3631;42.152;24.756;2023-02-22T14:31:07;3.92;;;2.50;;
7179;SDS011;3631;42.152;24.756;2023-02-22T14:36:35;5.82;;;3.50;;
7179;SDS011;3631;42.152;24.756;2023-02-22T14:39:13;6.68;;;3.63;;
7179;SDS011;3631;42.152;24.756;2023-02-22T14:41:46;6.13;;;5.68;;
7179;SDS011;3631;42.152;24.756;2023-02-22T14:44:20;22.90;;;15.30;;
7179;SDS011;3631;42.152;24.756;2023-02-22T14:46:51;16.63;;;9.35;;
7179;SDS011;3631;42.152;24.756;2023-02-22T14:49:23;9.10;;;8.20;;
7179;SDS011;3631;42.152;24.756;2023-02-22T14:51:55;7.82;;;7.10;;
7179;SDS011;3631;42.152;24.756;2023-02-22T14:54:29;9.55;;;5.15;;
7179;SDS011;3631;42.152;24.756;2023-02-22T14:57:06;3.42;;;3.20;;
7179;SDS011;3631;42.152;24.756;2023-02-22T14:59:45;7.32;;;2.42;;
7179;SDS011;3631;42.152;24.756;2023-02-22T15:02:18;4.53;;;2.55;;
7179;SDS011;3631;42.152;24.756;2023-02-22T15:04:51;5.80;;;2.67;;
7179;SDS011;3631;42.152;24.756;2023-02-22T15:07:21;4.78;;;2.70;;
7179;SDS011;3631;42.152;24.756;2023-02-22T15:09:52;7.55;;;2.75;;
7179;SDS011;3631;42.152;24.756;2023-02-22T15:12:33;2.55;;;2.35;;
7179;SDS011;3631;42.152;24.756;2023-02-22T15:15:11;3.72;;;2.40;;
7179;SDS011;3631;42.152;24.756;2023-02-22T15:17:45;14.27;;;7.40;;
7179;SDS011;3631;42.152;24.756;2023-02-22T15:20:15;10.15;;;7.35;;
7179;SDS011;3631;42.152;24.756;2023-02-22T15:22:44;8.25;;;5.68;;
7179;SDS011;3631;42.152;24.756;2023-02-22T15:25:13;7.53;;;4.68;;
7179;SDS011;3631;42.152;24.756;2023-02-22T15:27:42;5.50;;;5.05;;
7179;SDS011;3631;42.152;24.756;2023-02-22T15:30:16;14.75;;;5.35;;
7179;SDS011;3631;42.152;24.756;2023-02-22T15:32:51;7.15;;;3.90;;
7179;SDS011;3631;42.152;24.756;2023-02-22T15:35:29;7.55;;;2.90;;
7179;SDS011;3631;42.152;24.756;2023-02-22T15:37:57;6.97;;;2.85;;
7179;SDS011;3631;42.152;24.756;2023-02-22T15:40:27;3.30;;;3.00;;
7179;SDS011;3631;42.152;24.756;2023-02-22T15:42:57;4.13;;;2.45;;
7179;SDS011;3631;42.152;24.756;2023-02-22T15:45:26;8.00;;;2.95;;